Time;durP1;ratioP1;P1;durP2;ratioP2;P2;SDS_P1;SDS_P2;PMS_P1;PMS_P2;Temp;Humidity;BMP_temperature;BMP_pressure;BME280_temperature;BME280_humidity;BME280_pressure;Samples;Min_cycle;Max_cycle;Signal;HPM_P1;HPM_P2
2022/07/22 00:00:00;;;;;;;1.03;1.03;;;;;;;27.49;nan;95128.81;5020793;28;20206;-67
2022/07/22 00:02:30;;;;;;;0.30;0.30;;;;;;;27.58;nan;95121.28;5011246;28;20206;-66
2022/07/22 00:04:57;;;;;;;0.60;0.60;;;;;;;27.45;nan;95130.66;5024821;28;20204;-66
2022/07/22 00:07:24;;;;;;;0.60;0.57;;;;;;;27.35;nan;95132.03;5010698;28;20198;-67
2022/07/22 00:09:51;;;;;;;0.63;0.63;;;;;;;27.28;nan;95125.69;5010396;28;20612;-67
2022/07/22 00:12:18;;;;;;;0.40;0.40;;;;;;;27.40;nan;95128.25;5033972;28;20189;-67
2022/07/22 00:14:45;;;;;;;1.53;1.43;;;;;;;27.26;nan;95130.66;5043942;28;20208;-67
2022/07/22 00:17:12;;;;;;;0.57;0.57;;;;;;;27.46;nan;95130.28;5031785;28;20203;-65
2022/07/22 00:19:39;;;;;;;1.97;0.73;;;;;;;27.40;nan;95139.03;5036166;28;20193;-67
2022/07/22 00:22:05;;;;;;;0.57;0.57;;;;;;;27.34;nan;95135.06;5034691;28;20206;-67
2022/07/22 00:24:32;;;;;;;0.53;0.53;;;;;;;27.37;nan;95145.13;5038769;28;20222;-68
2022/07/22 00:26:59;;;;;;;0.40;0.40;;;;;;;27.37;nan;95145.13;5022657;28;20229;-67
2022/07/22 00:29:26;;;;;;;6.37;1.63;;;;;;;26.88;nan;95145.63;5035314;28;20206;-67
2022/07/22 00:31:53;;;;;;;0.70;0.70;;;;;;;26.96;nan;95136.59;5034604;28;20569;-67
2022/07/22 00:34:20;;;;;;;0.40;0.40;;;;;;;27.04;nan;95149.03;5039434;28;20204;-66
2022/07/22 00:36:48;;;;;;;0.53;0.53;;;;;;;26.71;nan;95150.63;5045493;28;20192;-66
2022/07/22 00:39:15;;;;;;;0.57;0.57;;;;;;;26.72;nan;95146.81;5048732;28;20204;-66
2022/07/22 00:41:42;;;;;;;0.60;0.60;;;;;;;26.82;nan;95152.41;5048314;28;20196;-67
2022/07/22 00:44:09;;;;;;;0.37;0.33;;;;;;;26.91;nan;95147.63;5021185;28;20585;-67
2022/07/22 00:46:37;;;;;;;0.60;0.60;;;;;;;26.81;nan;95148.16;5009260;28;20706;-67
2022/07/22 00:49:06;;;;;;;0.87;0.87;;;;;;;26.88;nan;95145.63;5016156;28;20189;-66
2022/07/22 00:51:33;;;;;;;2.80;1.83;;;;;;;26.87;nan;95141.41;5042604;28;20215;-67
2022/07/22 00:54:02;;;;;;;3.63;1.90;;;;;;;26.76;nan;95142.28;5035591;28;20201;-66
2022/07/22 00:56:30;;;;;;;1.20;1.10;;;;;;;26.80;nan;95133.19;5021676;28;20712;-67
2022/07/22 00:59:00;;;;;;;2.80;1.30;;;;;;;26.80;nan;95132.41;5037298;28;20186;-66
2022/07/22 01:01:27;;;;;;;1.83;0.80;;;;;;;26.58;nan;95133.03;5036067;28;20217;-66
2022/07/22 01:03:55;;;;;;;0.60;0.60;;;;;;;26.16;nan;95130.16;5014992;28;20280;-68
2022/07/22 01:06:29;;;;;;;0.57;0.57;;;;;;;26.43;nan;95136.53;5040405;28;20196;-68
2022/07/22 01:08:57;;;;;;;1.03;0.97;;;;;;;26.20;nan;95136.38;5026179;28;20292;-67
2022/07/22 01:11:25;;;;;;;1.80;1.50;;;;;;;26.13;nan;95135.44;5031731;28;20222;-67
2022/07/22 01:13:54;;;;;;;0.50;0.50;;;;;;;26.19;nan;95129.44;5048246;28;20591;-66
2022/07/22 01:16:24;;;;;;;0.57;0.57;;;;;;;26.28;nan;95132.72;5034014;28;20209;-68
2022/07/22 01:18:51;;;;;;;0.10;0.10;;;;;;;26.28;nan;95138.09;5029750;28;20201;-66
2022/07/22 01:21:18;;;;;;;0.57;0.57;;;;;;;26.41;nan;95139.56;5039137;28;20219;-68
2022/07/22 01:23:46;;;;;;;0.93;0.93;;;;;;;26.29;nan;95139.69;5036141;28;20200;-66
2022/07/22 01:26:14;;;;;;;1.63;1.27;;;;;;;26.25;nan;95136.13;5020083;28;20209;-68
2022/07/22 01:28:41;;;;;;;0.63;0.63;;;;;;;26.35;nan;95127.50;5028089;28;20228;-68
2022/07/22 01:31:08;;;;;;;0.50;0.50;;;;;;;26.25;nan;95136.13;5041017;28;20426;-68
2022/07/22 01:33:35;;;;;;;0.23;0.23;;;;;;;25.98;nan;95129.66;5020834;28;20196;-67
2022/07/22 01:36:04;;;;;;;0.50;0.50;;;;;;;26.21;nan;95137.16;5050214;28;20204;-67
2022/07/22 01:38:31;;;;;;;0.10;0.10;;;;;;;26.31;nan;95125.88;5048527;28;20196;-67
2022/07/22 01:40:58;;;;;;;0.83;0.63;;;;;;;26.29;nan;95123.56;5031650;28;20552;-68
2022/07/22 01:43:27;;;;;;;0.40;0.40;;;;;;;26.39;nan;95133.75;5032233;28;20197;-66
2022/07/22 01:45:54;;;;;;;1.40;1.23;;;;;;;26.35;nan;95134.81;5037988;28;20214;-67
2022/07/22 01:48:22;;;;;;;0.77;0.67;;;;;;;26.28;nan;95135.41;5051719;28;20625;-67
2022/07/22 01:50:50;;;;;;;2.10;1.03;;;;;;;26.36;nan;95134.47;5046436;28;20223;-67
2022/07/22 01:53:18;;;;;;;0.43;0.43;;;;;;;26.43;nan;95137.31;5045264;28;20342;-68
2022/07/22 01:55:46;;;;;;;0.20;0.20;;;;;;;26.32;nan;95136.28;5036284;28;20424;-67
2022/07/22 01:58:14;;;;;;;0.50;0.47;;;;;;;26.33;nan;95145.88;5027267;28;20208;-67
2022/07/22 02:00:41;;;;;;;0.20;0.20;;;;;;;26.22;nan;95136.81;5012696;28;20780;-67
2022/07/22 02:03:10;;;;;;;0.50;0.50;;;;;;;26.19;nan;95134.81;5025897;28;20193;-65
2022/07/22 02:05:38;;;;;;;0.30;0.30;;;;;;;26.22;nan;95133.34;5017580;28;20296;-69
2022/07/22 02:08:16;;;;;;;3.70;1.13;;;;;;;26.02;nan;95145.91;5032088;28;20206;-66
2022/07/22 02:11:01;;;;;;;0.50;0.50;;;;;;;25.95;nan;95146.47;5041594;28;20382;-67
2022/07/22 02:13:29;;;;;;;2.50;1.63;;;;;;;25.86;nan;95153.13;5038846;28;20193;-66
2022/07/22 02:15:56;;;;;;;1.03;0.90;;;;;;;25.90;nan;95149.44;5038215;28;20225;-67
2022/07/22 02:18:23;;;;;;;1.50;1.40;;;;;;;25.53;nan;95166.09;5046551;28;20201;-67
2022/07/22 02:20:50;;;;;;;0.40;0.40;;;;;;;25.89;nan;95160.53;5031540;28;20295;-66
2022/07/22 02:23:18;;;;;;;1.13;0.87;;;;;;;26.01;nan;95165.81;5035328;28;20200;-67
2022/07/22 02:25:45;;;;;;;0.87;0.87;;;;;;;25.98;nan;95161.91;5030945;28;20273;-67
2022/07/22 02:28:12;;;;;;;4.53;1.90;;;;;;;25.78;nan;95157.53;5046165;28;20368;-66
2022/07/22 02:30:39;;;;;;;6.33;2.03;;;;;;;25.82;nan;95169.16;5035589;28;20214;-67
2022/07/22 02:33:06;;;;;;;0.93;0.93;;;;;;;25.85;nan;95162.34;5040822;28;20192;-66
2022/07/22 02:35:33;;;;;;;1.60;0.93;;;;;;;25.69;nan;95158.84;5044479;28;20193;-66
2022/07/22 02:38:00;;;;;;;1.60;0.70;;;;;;;25.68;nan;95157.28;5044290;28;20192;-69
2022/07/22 02:40:30;;;;;;;8.33;1.03;;;;;;;25.71;nan;95160.06;5036959;28;20207;-66
2022/07/22 02:42:57;;;;;;;0.73;0.73;;;;;;;25.66;nan;95154.94;5034354;28;20646;-66
2022/07/22 02:45:24;;;;;;;0.20;0.20;;;;;;;25.67;nan;95155.72;5032912;28;20201;-66
2022/07/22 02:47:53;;;;;;;1.40;1.30;;;;;;;25.73;nan;95165.09;5022227;28;20582;-66
2022/07/22 02:50:22;;;;;;;0.77;0.77;;;;;;;25.53;nan;95160.72;5013578;28;20227;-68
2022/07/22 02:52:50;;;;;;;1.00;0.87;;;;;;;25.50;nan;95161.41;5041604;28;20184;-68
2022/07/22 02:55:19;;;;;;;2.80;1.17;;;;;;;25.58;nan;95157.78;5042729;28;20198;-68
2022/07/22 02:57:48;;;;;;;0.57;0.57;;;;;;;25.48;nan;95158.28;5021890;28;20201;-68
2022/07/22 03:00:16;;;;;;;1.83;1.73;;;;;;;25.53;nan;95166.09;5044378;28;20616;-66
2022/07/22 03:02:44;;;;;;;0.50;0.50;;;;;;;25.52;nan;95159.16;5032061;28;20200;-68
2022/07/22 03:05:12;;;;;;;0.53;0.53;;;;;;;25.31;nan;95158.56;5042566;28;20254;-66
2022/07/22 03:07:48;;;;;;;7.53;2.13;;;;;;;25.20;nan;95162.84;5024292;28;20258;-68
2022/07/22 03:10:15;;;;;;;0.30;0.30;;;;;;;25.33;nan;95159.00;5019200;28;20201;-66
2022/07/22 03:12:42;;;;;;;0.87;0.87;;;;;;;25.38;nan;95148.03;5043627;28;20211;-68
2022/07/22 03:15:09;;;;;;;0.83;0.83;;;;;;;25.40;nan;95165.34;5017789;28;20196;-68
2022/07/22 03:17:38;;;;;;;0.40;0.30;;;;;;;25.35;nan;95156.72;5019094;28;20273;-65
2022/07/22 03:20:09;;;;;;;4.17;2.17;;;;;;;25.20;nan;95154.81;5049487;28;20293;-65
2022/07/22 03:22:36;;;;;;;0.30;0.30;;;;;;;25.12;nan;95163.75;5026001;28;20198;-66
2022/07/22 03:25:05;;;;;;;1.17;1.10;;;;;;;25.20;nan;95160.16;5031557;28;20193;-68
2022/07/22 03:27:32;;;;;;;0.83;0.83;;;;;;;24.53;nan;95158.94;5030156;28;20601;-68
2022/07/22 03:30:00;;;;;;;1.83;1.60;;;;;;;24.30;nan;95168.56;5032977;28;20197;-67
2022/07/22 03:32:27;;;;;;;0.43;0.37;;;;;;;24.58;nan;95160.63;5040322;28;20231;-67
2022/07/22 03:34:54;;;;;;;1.13;1.03;;;;;;;24.68;nan;95174.34;5017188;28;20222;-67
2022/07/22 03:37:30;;;;;;;0.60;0.60;;;;;;;24.99;nan;95174.53;5030752;28;20203;-68
2022/07/22 03:39:58;;;;;;;1.90;1.27;;;;;;;25.31;nan;95169.28;5018507;28;20689;-66
2022/07/22 03:42:25;;;;;;;1.23;1.13;;;;;;;25.27;nan;95174.56;5042788;28;20664;-69
2022/07/22 03:44:52;;;;;;;0.70;0.70;;;;;;;25.20;nan;95166.28;5043826;28;20659;-66
2022/07/22 03:47:22;;;;;;;3.10;2.03;;;;;;;25.18;nan;95170.44;5043657;28;20343;-66
2022/07/22 03:49:50;;;;;;;0.63;0.53;;;;;;;25.54;nan;95178.38;5041897;28;20698;-69
2022/07/22 03:52:24;;;;;;;1.37;1.27;;;;;;;25.25;nan;95178.69;5021518;28;20220;-69
2022/07/22 03:54:51;;;;;;;0.90;0.90;;;;;;;25.20;nan;95178.94;5026118;28;20194;-67
2022/07/22 03:57:19;;;;;;;1.00;0.87;;;;;;;25.27;nan;95179.13;5023221;28;20286;-68
2022/07/22 03:59:51;;;;;;;0.80;0.80;;;;;;;25.05;nan;95186.56;5049245;28;20672;-67
2022/07/22 04:02:19;;;;;;;0.83;0.83;;;;;;;25.09;nan;95183.97;5035154;28;20254;-67
2022/07/22 04:04:46;;;;;;;4.73;1.43;;;;;;;25.22;nan;95187.44;5038513;28;20200;-67
2022/07/22 04:07:14;;;;;;;0.60;0.60;;;;;;;25.09;nan;95189.34;5044215;28;20351;-68
2022/07/22 04:09:41;;;;;;;1.60;1.50;;;;;;;25.24;nan;95180.59;5019222;28;20255;-67
2022/07/22 04:12:08;;;;;;;0.73;0.57;;;;;;;25.25;nan;95192.09;5021145;28;20221;-68
2022/07/22 04:14:51;;;;;;;0.60;0.60;;;;;;;24.96;nan;95185.91;5046170;28;20192;-67
2022/07/22 04:17:18;;;;;;;2.03;1.83;;;;;;;24.98;nan;95196.31;5027759;28;20637;-69
2022/07/22 04:19:45;;;;;;;2.53;2.03;;;;;;;25.20;nan;95189.66;5040014;28;20197;-68
2022/07/22 04:22:25;;;;;;;2.43;2.23;;;;;;;24.97;nan;95178.66;5039933;28;20261;-67
2022/07/22 04:24:54;;;;;;;1.73;1.63;;;;;;;25.16;nan;95199.50;5045816;28;20220;-68
2022/07/22 04:27:21;;;;;;;3.27;2.73;;;;;;;25.38;nan;95196.34;5019385;28;20237;-67
2022/07/22 04:29:48;;;;;;;3.23;2.60;;;;;;;25.51;nan;95200.53;5024402;28;20201;-68
2022/07/22 04:32:15;;;;;;;2.57;2.37;;;;;;;25.68;nan;95202.91;5036602;28;20212;-69
2022/07/22 04:34:43;;;;;;;11.57;4.73;;;;;;;25.71;nan;95208.38;5034968;28;20205;-66
2022/07/22 04:37:10;;;;;;;4.33;2.93;;;;;;;25.70;nan;95203.34;5021347;28;20277;-67
2022/07/22 04:39:39;;;;;;;4.37;3.20;;;;;;;25.67;nan;95210.19;5023605;28;20202;-67
2022/07/22 04:42:06;;;;;;;3.27;2.80;;;;;;;25.67;nan;95209.41;5032358;28;20189;-66
2022/07/22 04:44:33;;;;;;;1.63;1.53;;;;;;;25.67;nan;95212.09;5037799;28;20197;-68
2022/07/22 04:47:00;;;;;;;1.63;1.53;;;;;;;25.47;nan;95210.38;5031729;28;20204;-67
2022/07/22 04:49:33;;;;;;;12.53;2.53;;;;;;;25.64;nan;95215.44;5048608;28;20242;-67
2022/07/22 04:52:01;;;;;;;4.23;3.07;;;;;;;25.68;nan;95217.13;5029533;28;20224;-68
2022/07/22 04:54:38;;;;;;;1.60;1.50;;;;;;;25.66;nan;95213.19;5028825;28;20293;-68
2022/07/22 04:57:06;;;;;;;1.37;0.87;;;;;;;25.95;nan;95221.69;5015291;28;20383;-67
2022/07/22 04:59:33;;;;;;;1.10;0.90;;;;;;;25.88;nan;95221.50;5039456;28;20691;-67
2022/07/22 05:02:02;;;;;;;1.07;1.03;;;;;;;25.86;nan;95222.94;5030606;28;20255;-68
2022/07/22 05:04:29;;;;;;;1.43;1.33;;;;;;;25.19;nan;95209.53;5018683;28;20201;-68
2022/07/22 05:06:56;;;;;;;2.30;2.00;;;;;;;25.39;nan;95225.50;5027941;28;20647;-67
2022/07/22 05:09:23;;;;;;;0.93;0.93;;;;;;;25.67;nan;95220.94;5018784;28;20212;-67
2022/07/22 05:11:50;;;;;;;0.90;0.90;;;;;;;25.83;nan;95218.28;5020891;28;20380;-68
2022/07/22 05:14:20;;;;;;;1.70;1.50;;;;;;;26.04;nan;95213.47;5008510;28;20206;-67
2022/07/22 05:16:47;;;;;;;2.73;1.33;;;;;;;25.53;nan;95225.13;5041969;28;20579;-67
2022/07/22 05:19:14;;;;;;;1.50;1.40;;;;;;;26.01;nan;95214.16;5042332;28;20564;-69
2022/07/22 05:21:41;;;;;;;2.03;1.07;;;;;;;25.77;nan;95220.44;5043227;28;20292;-66
2022/07/22 05:24:08;;;;;;;1.63;1.53;;;;;;;26.16;nan;95220.69;5045943;28;20212;-66
2022/07/22 05:26:35;;;;;;;1.00;1.00;;;;;;;26.45;nan;95218.34;5043387;28;20227;-67
2022/07/22 05:29:02;;;;;;;0.67;0.67;;;;;;;26.42;nan;95219.03;5020686;28;20205;-68
2022/07/22 05:31:29;;;;;;;1.30;0.90;;;;;;;26.68;nan;95227.38;5038998;28;20648;-68
2022/07/22 05:33:56;;;;;;;2.77;1.53;;;;;;;26.11;nan;95229.78;5032898;28;20201;-67
2022/07/22 05:36:27;;;;;;;0.50;0.50;;;;;;;25.53;nan;95225.13;5036718;28;20204;-67
2022/07/22 05:38:55;;;;;;;1.63;1.53;;;;;;;26.28;nan;95224.06;5034832;28;20648;-66
2022/07/22 05:41:23;;;;;;;0.43;0.43;;;;;;;26.06;nan;95221.97;5009839;28;20202;-67
2022/07/22 05:43:51;;;;;;;2.30;1.93;;;;;;;26.13;nan;95221.38;5032403;28;20667;-67
2022/07/22 05:46:18;;;;;;;32.23;1.63;;;;;;;26.30;nan;95231.78;5047938;28;20295;-67
2022/07/22 05:48:47;;;;;;;3.87;2.63;;;;;;;26.88;nan;95220.94;5019779;28;20625;-65
2022/07/22 05:51:14;;;;;;;0.70;0.70;;;;;;;27.08;nan;95223.69;5028271;28;20260;-66
2022/07/22 05:53:43;;;;;;;1.37;1.27;;;;;;;26.57;nan;95220.19;5026564;28;20197;-68
2022/07/22 05:56:12;;;;;;;1.17;0.90;;;;;;;26.27;nan;95203.72;5017126;28;20196;-68
2022/07/22 05:58:41;;;;;;;0.60;0.60;;;;;;;27.06;nan;95220.56;5037300;28;20610;-68
2022/07/22 06:01:10;;;;;;;0.60;0.60;;;;;;;27.01;nan;95225.06;5029676;28;20612;-68
2022/07/22 06:03:38;;;;;;;0.40;0.40;;;;;;;26.76;nan;95217.56;5018300;28;20190;-68
2022/07/22 06:06:08;;;;;;;1.80;1.30;;;;;;;27.43;nan;95213.66;5029737;28;20197;-67
2022/07/22 06:08:37;;;;;;;1.47;1.27;;;;;;;27.15;nan;95218.44;5014763;28;20287;-67
2022/07/22 06:11:04;;;;;;;1.33;1.23;;;;;;;27.54;nan;95215.44;5022023;28;20680;-67
2022/07/22 06:13:32;;;;;;;2.23;1.20;;;;;;;27.99;nan;95212.09;5008077;28;20213;-68
2022/07/22 06:16:01;;;;;;;1.40;1.27;;;;;;;27.01;nan;95219.69;5035856;28;20283;-67
2022/07/22 06:18:28;;;;;;;0.70;0.70;;;;;;;27.59;nan;95222.47;5024575;28;20193;-66
2022/07/22 06:20:55;;;;;;;1.70;1.57;;;;;;;27.80;nan;95217.47;5008107;28;20276;-67
2022/07/22 06:23:24;;;;;;;1.63;1.03;;;;;;;27.81;nan;95221.72;5040058;28;20196;-66
2022/07/22 06:25:51;;;;;;;0.93;0.93;;;;;;;28.03;nan;95221.00;5018226;28;20209;-66
2022/07/22 06:28:24;;;;;;;0.60;0.60;;;;;;;28.01;nan;95217.88;5011330;28;20217;-67
2022/07/22 06:30:51;;;;;;;1.27;1.17;;;;;;;28.22;nan;95223.69;5037843;28;20200;-66
2022/07/22 06:33:20;;;;;;;0.73;0.67;;;;;;;28.08;nan;95218.03;5034166;28;20594;-66
2022/07/22 06:35:47;;;;;;;0.50;0.43;;;;;;;27.58;nan;95215.50;5051960;28;20205;-67
2022/07/22 06:38:14;;;;;;;0.97;0.77;;;;;;;28.04;nan;95211.81;5022760;28;20242;-68
2022/07/22 06:41:24;;;;;;;3.20;1.27;;;;;;;28.37;nan;95222.78;5036386;28;20211;-64
2022/07/22 06:44:04;;;;;;;1.20;0.93;;;;;;;28.25;nan;95220.25;5020667;28;20197;-66
2022/07/22 06:46:51;;;;;;;1.37;1.03;;;;;;;28.51;nan;95214.13;5044568;28;20703;-67
2022/07/22 06:49:20;;;;;;;1.33;0.93;;;;;;;28.56;nan;95217.34;5011720;28;20197;-66
2022/07/22 06:51:47;;;;;;;1.17;0.93;;;;;;;28.75;nan;95214.56;5041673;28;20247;-66
2022/07/22 06:54:14;;;;;;;1.13;1.13;;;;;;;28.74;nan;95212.22;5038170;28;20201;-65
2022/07/22 06:56:41;;;;;;;1.43;1.30;;;;;;;28.74;nan;95214.94;5014688;28;20284;-67
2022/07/22 06:59:13;;;;;;;1.23;0.83;;;;;;;29.24;nan;95216.44;5039372;28;20233;-66
2022/07/22 07:01:41;;;;;;;1.67;1.57;;;;;;;29.42;nan;95206.63;5041704;28;20197;-65
2022/07/22 07:04:08;;;;;;;0.53;0.53;;;;;;;29.78;nan;95219.47;5018326;28;20189;-68
2022/07/22 07:06:36;;;;;;;0.43;0.43;;;;;;;29.64;nan;95216.53;5044377;28;20200;-67
2022/07/22 07:09:09;;;;;;;0.90;0.57;;;;;;;29.69;nan;95225.13;5011595;28;20244;-63
2022/07/22 07:11:36;;;;;;;0.73;0.73;;;;;;;29.57;nan;95221.88;5039119;28;20611;-65
2022/07/22 07:14:12;;;;;;;0.90;0.90;;;;;;;29.64;nan;95211.13;5024267;28;20584;-66
2022/07/22 07:16:39;;;;;;;1.17;1.17;;;;;;;29.77;nan;95215.19;5037249;28;20284;-66
2022/07/22 07:19:06;;;;;;;0.70;0.70;;;;;;;30.26;nan;95207.59;5050753;28;20247;-67
2022/07/22 07:21:33;;;;;;;1.70;1.27;;;;;;;30.08;nan;95209.34;5033135;28;20236;-68
2022/07/22 07:24:01;;;;;;;2.23;1.13;;;;;;;30.03;nan;95217.78;5040683;28;20711;-68
2022/07/22 07:26:28;;;;;;;1.93;1.57;;;;;;;30.02;nan;95221.63;5048084;28;20516;-67
2022/07/22 07:28:55;;;;;;;3.40;1.73;;;;;;;30.19;nan;95215.63;5030580;28;20193;-65
2022/07/22 07:31:30;;;;;;;3.17;0.90;;;;;;;30.45;nan;95212.03;5030008;28;20584;-69
2022/07/22 07:34:00;;;;;;;2.43;1.33;;;;;;;30.37;nan;95208.47;5018899;28;20197;-66
2022/07/22 07:36:27;;;;;;;0.50;0.50;;;;;;;30.86;nan;95206.19;5016580;28;20195;-66
2022/07/22 07:38:54;;;;;;;2.00;0.83;;;;;;;30.84;nan;95208.50;5043945;28;20205;-63
2022/07/22 07:41:21;;;;;;;1.03;1.03;;;;;;;30.80;nan;95207.66;5044439;28;20558;-65
2022/07/22 07:43:50;;;;;;;0.40;0.40;;;;;;;30.87;nan;95212.38;5040758;28;20787;-64
2022/07/22 07:46:17;;;;;;;0.83;0.83;;;;;;;31.12;nan;95199.00;5031948;28;20199;-67
2022/07/22 07:48:45;;;;;;;0.37;0.37;;;;;;;31.05;nan;95196.25;5036467;28;20200;-68
2022/07/22 07:51:12;;;;;;;0.80;0.80;;;;;;;31.54;nan;95208.13;5042032;28;20196;-65
2022/07/22 07:53:41;;;;;;;0.60;0.60;;;;;;;31.88;nan;95211.34;5045987;28;20734;-66
2022/07/22 07:56:09;;;;;;;0.50;0.50;;;;;;;31.79;nan;95209.00;5035765;28;20752;-67
2022/07/22 07:58:36;;;;;;;3.00;1.40;;;;;;;31.97;nan;95208.31;5028429;28;20200;-66
2022/07/22 08:01:06;;;;;;;0.70;0.70;;;;;;;31.96;nan;95190.47;5042419;28;20200;-67
2022/07/22 08:03:34;;;;;;;0.97;0.87;;;;;;;32.01;nan;95209.09;5036279;28;20251;-64
2022/07/22 08:06:01;;;;;;;0.30;0.30;;;;;;;32.07;nan;95202.91;5049674;28;20196;-69
2022/07/22 08:08:29;;;;;;;0.70;0.70;;;;;;;32.07;nan;95213.75;5033928;28;20283;-67
2022/07/22 08:11:01;;;;;;;0.57;0.57;;;;;;;32.18;nan;95214.53;5040128;28;20215;-66
2022/07/22 08:13:31;;;;;;;1.67;0.93;;;;;;;31.91;nan;95204.41;5044221;28;20376;-66
2022/07/22 08:16:01;;;;;;;0.70;0.70;;;;;;;32.24;nan;95207.59;5045522;28;20680;-68
2022/07/22 08:18:29;;;;;;;1.00;0.90;;;;;;;32.65;nan;95206.06;5049803;28;20258;-65
2022/07/22 08:20:56;;;;;;;0.13;0.13;;;;;;;32.81;nan;95195.59;5037211;28;20200;-64
2022/07/22 08:23:52;;;;;;;1.23;1.17;;;;;;;32.75;nan;95204.53;5040157;28;20272;-67
2022/07/22 08:26:19;;;;;;;0.70;0.70;;;;;;;32.36;nan;95204.50;5020856;28;20293;-65
2022/07/22 08:28:46;;;;;;;0.50;0.50;;;;;;;32.79;nan;95208.03;5029648;28;20219;-67
2022/07/22 08:31:13;;;;;;;0.53;0.53;;;;;;;32.77;nan;95202.19;5016462;28;20559;-66
2022/07/22 08:33:40;;;;;;;1.90;0.93;;;;;;;33.05;nan;95218.47;5034293;28;20699;-66
2022/07/22 08:36:07;;;;;;;0.70;0.70;;;;;;;33.11;nan;95210.69;5050470;28;20199;-66
2022/07/22 08:41:23;;;;;;;2.10;1.20;;;;;;;33.35;nan;95205.22;5016948;28;20581;-66
2022/07/22 08:43:51;;;;;;;0.60;0.60;;;;;;;33.53;nan;95216.03;5042380;28;20185;-66
2022/07/22 08:46:18;;;;;;;0.63;0.63;;;;;;;33.33;nan;95212.97;5040472;28;20652;-66
2022/07/22 08:49:06;;;;;;;0.73;0.70;;;;;;;32.97;nan;95197.16;5025457;28;20386;-68
2022/07/22 08:51:53;;;;;;;1.43;1.00;;;;;;;33.01;nan;95206.06;5044687;28;20269;-66
2022/07/22 08:54:23;;;;;;;0.70;0.50;;;;;;;33.68;nan;95203.94;5038006;28;20201;-68
2022/07/22 08:56:51;;;;;;;2.13;1.17;;;;;;;33.92;nan;95200.34;5011543;28;20212;-66
2022/07/22 08:59:19;;;;;;;2.90;0.80;;;;;;;33.89;nan;95209.28;5038538;28;20196;-66
2022/07/22 09:02:15;;;;;;;0.60;0.60;;;;;;;33.45;nan;95203.66;5021051;28;20747;-65
2022/07/22 09:04:53;;;;;;;0.40;0.40;;;;;;;33.77;nan;95209.75;5026348;28;20216;-66
2022/07/22 09:07:31;;;;;;;0.50;0.50;;;;;;;34.02;nan;95204.97;5029168;28;20204;-66
2022/07/22 09:10:06;;;;;;;0.67;0.67;;;;;;;33.97;nan;95202.66;5022806;28;20201;-65
2022/07/22 09:13:00;;;;;;;1.90;1.63;;;;;;;34.37;nan;95204.75;5049736;28;20623;-68
2022/07/22 09:16:02;;;;;;;0.60;0.60;;;;;;;34.29;nan;95202.47;5013578;28;20209;-67
2022/07/22 09:18:50;;;;;;;0.40;0.40;;;;;;;34.20;nan;95215.72;5037240;28;21033;-67
2022/07/22 09:21:29;;;;;;;2.60;1.30;;;;;;;34.18;nan;95204.50;5048498;28;20211;-65
2022/07/22 09:24:31;;;;;;;0.63;0.63;;;;;;;34.01;nan;95208.88;5048809;28;20208;-64
2022/07/22 09:27:08;;;;;;;0.67;0.67;;;;;;;34.45;nan;95208.97;5023903;28;20287;-66
2022/07/22 09:29:56;;;;;;;0.93;0.87;;;;;;;34.78;nan;95213.00;5046447;28;20208;-66
2022/07/22 09:32:39;;;;;;;12.63;1.13;;;;;;;34.68;nan;95198.31;5028672;28;20737;-65
2022/07/22 09:35:27;;;;;;;0.20;0.20;;;;;;;35.01;nan;95201.53;5015912;28;20258;-66
2022/07/22 09:38:05;;;;;;;0.60;0.50;;;;;;;35.17;nan;95202.53;5045326;28;20668;-65
2022/07/22 09:40:37;;;;;;;1.17;1.00;;;;;;;35.54;nan;95193.59;5020478;28;20517;-67
2022/07/22 09:43:12;;;;;;;1.90;0.90;;;;;;;35.49;nan;95207.69;5035749;28;20201;-66
2022/07/22 09:45:56;;;;;;;1.30;1.17;;;;;;;35.60;nan;95202.88;5027778;28;20204;-67
2022/07/22 09:48:47;;;;;;;0.70;0.70;;;;;;;35.26;nan;95202.03;5053601;28;20663;-65
2022/07/22 09:51:33;;;;;;;5.63;1.33;;;;;;;35.21;nan;95199.78;5036191;28;20236;-66
2022/07/22 09:54:15;;;;;;;2.60;0.93;;;;;;;35.60;nan;95197.41;5022299;28;20220;-67
2022/07/22 09:56:43;;;;;;;1.03;1.03;;;;;;;35.18;nan;95182.28;5020321;28;20711;-64
2022/07/22 09:59:10;;;;;;;0.23;0.20;;;;;;;35.61;nan;95193.50;5048476;28;20246;-65
2022/07/22 10:01:42;;;;;;;0.67;0.57;;;;;;;35.26;nan;95191.94;5034351;28;20205;-65
2022/07/22 10:04:10;;;;;;;0.63;0.50;;;;;;;35.73;nan;95194.94;5021083;28;20201;-66
2022/07/22 10:06:40;;;;;;;1.23;0.97;;;;;;;35.46;nan;95192.13;5041763;28;20206;-65
2022/07/22 10:09:15;;;;;;;0.87;0.53;;;;;;;35.85;nan;95181.50;5015999;28;20201;-64
2022/07/22 10:11:46;;;;;;;0.70;0.70;;;;;;;35.71;nan;95186.38;5045418;28;20193;-65
2022/07/22 10:14:18;;;;;;;0.30;0.30;;;;;;;36.07;nan;95188.25;5032017;28;20216;-65
2022/07/22 10:16:49;;;;;;;0.80;0.80;;;;;;;35.98;nan;95171.63;5025419;28;20591;-65
2022/07/22 10:19:16;;;;;;;0.93;0.90;;;;;;;36.06;nan;95173.03;5053107;28;20203;-65
2022/07/22 10:21:44;;;;;;;0.90;0.90;;;;;;;35.74;nan;95180.88;5037780;28;20232;-66
2022/07/22 10:24:19;;;;;;;0.60;0.60;;;;;;;35.17;nan;95172.56;5052255;28;20206;-65
2022/07/22 10:26:58;;;;;;;1.13;1.03;;;;;;;35.97;nan;95167.34;5024225;28;20416;-64
2022/07/22 10:29:39;;;;;;;0.83;0.77;;;;;;;36.34;nan;95169.91;5041113;28;20197;-66
2022/07/22 10:32:24;;;;;;;1.50;1.33;;;;;;;36.71;nan;95170.91;5039423;28;20697;-66
2022/07/22 10:34:57;;;;;;;0.60;0.60;;;;;;;36.86;nan;95166.78;5051897;28;20208;-65
2022/07/22 10:37:38;;;;;;;0.73;0.73;;;;;;;37.04;nan;95167.22;5041323;28;20192;-65
2022/07/22 10:40:24;;;;;;;0.40;0.40;;;;;;;37.39;nan;95161.13;5022475;28;20204;-65
2022/07/22 10:42:57;;;;;;;1.20;0.83;;;;;;;36.89;nan;95160.47;5044092;28;20212;-65
2022/07/22 10:45:25;;;;;;;0.60;0.60;;;;;;;36.81;nan;95169.97;5053037;28;20221;-65
2022/07/22 10:47:58;;;;;;;0.53;0.53;;;;;;;37.02;nan;95172.34;5042686;28;20215;-64
2022/07/22 10:50:40;;;;;;;0.90;0.90;;;;;;;37.54;nan;95173.28;5043313;28;20589;-64
2022/07/22 10:53:13;;;;;;;1.50;1.17;;;;;;;37.26;nan;95168.38;5013613;28;20217;-64
2022/07/22 10:56:12;;;;;;;0.87;0.87;;;;;;;37.47;nan;95167.97;5034688;28;20259;-64
2022/07/22 10:58:45;;;;;;;0.83;0.83;;;;;;;37.71;nan;95158.50;5050586;28;20212;-65
2022/07/22 11:01:15;;;;;;;1.43;0.80;;;;;;;37.58;nan;95165.78;5032642;28;20200;-65
2022/07/22 11:03:44;;;;;;;1.03;0.93;;;;;;;37.41;nan;95166.91;5046287;28;20292;-65
2022/07/22 11:06:44;;;;;;;0.77;0.77;;;;;;;37.53;nan;95160.81;5040827;28;20593;-64
2022/07/22 11:09:14;;;;;;;0.50;0.50;;;;;;;37.72;nan;95162.00;5015785;28;20198;-66
2022/07/22 11:11:53;;;;;;;1.27;0.77;;;;;;;37.96;nan;95158.75;5012242;28;20213;-65
2022/07/22 11:14:26;;;;;;;2.57;1.70;;;;;;;37.81;nan;95154.03;5026558;28;20282;-64
2022/07/22 11:17:06;;;;;;;0.30;0.30;;;;;;;38.18;nan;95157.09;5026692;28;20577;-63
2022/07/22 11:19:33;;;;;;;1.17;1.00;;;;;;;37.93;nan;95151.41;5023890;28;20276;-64
2022/07/22 11:22:04;;;;;;;0.80;0.80;;;;;;;38.10;nan;95155.69;5038103;28;20200;-64
2022/07/22 11:24:31;;;;;;;0.80;0.80;;;;;;;37.78;nan;95149.38;5040519;28;20278;-65
2022/07/22 11:26:59;;;;;;;0.67;0.63;;;;;;;38.05;nan;95147.97;5039453;28;20231;-64
2022/07/22 11:29:37;;;;;;;1.13;0.80;;;;;;;37.73;nan;95128.75;5025184;28;20212;-64
2022/07/22 11:32:06;;;;;;;0.80;0.80;;;;;;;38.30;nan;95147.44;5018651;28;20181;-64
2022/07/22 11:34:36;;;;;;;1.47;0.83;;;;;;;38.39;nan;95148.41;5044708;28;20228;-65
2022/07/22 11:37:03;;;;;;;0.90;0.77;;;;;;;37.78;nan;95150.16;5018657;28;20196;-64
2022/07/22 11:39:30;;;;;;;0.40;0.40;;;;;;;37.90;nan;95144.03;5020445;28;20672;-64
2022/07/22 11:41:59;;;;;;;0.77;0.50;;;;;;;38.18;nan;95140.69;5043455;28;20563;-63
2022/07/22 11:44:33;;;;;;;0.60;0.60;;;;;;;38.60;nan;95138.13;5042016;28;20184;-65
2022/07/22 11:47:01;;;;;;;0.60;0.60;;;;;;;38.22;nan;95140.59;5045425;28;20198;-65
2022/07/22 11:49:35;;;;;;;0.60;0.60;;;;;;;38.33;nan;95136.41;5031071;28;20207;-66
2022/07/22 11:52:04;;;;;;;0.43;0.43;;;;;;;38.84;nan;95132.03;5048916;28;20700;-62
2022/07/22 11:54:31;;;;;;;0.73;0.73;;;;;;;38.81;nan;95129.38;5012267;28;20722;-64
2022/07/22 11:56:58;;;;;;;0.73;0.50;;;;;;;38.61;nan;95134.94;5020351;28;20195;-65
2022/07/22 11:59:25;;;;;;;0.87;0.60;;;;;;;38.30;nan;95131.78;5051343;28;20678;-65
2022/07/22 12:01:53;;;;;;;1.00;1.00;;;;;;;38.70;nan;95118.69;5037463;28;20193;-64
2022/07/22 12:04:22;;;;;;;1.00;1.00;;;;;;;38.46;nan;95129.06;5051529;28;20206;-62
2022/07/22 12:06:50;;;;;;;0.50;0.50;;;;;;;38.38;nan;95127.69;5036234;28;20201;-65
2022/07/22 12:09:26;;;;;;;0.57;0.53;;;;;;;38.00;nan;95134.81;5016792;28;20630;-63